createdAt,value
2023-11-06T00:00:42.193Z,8.98
2023-11-06T00:03:09.186Z,8.97
2023-11-06T00:05:39.759Z,9.00
2023-11-06T00:08:08.914Z,9.02
2023-11-06T00:10:39.336Z,9.05
2023-11-06T00:13:06.486Z,9.04
2023-11-06T00:15:33.811Z,9.05
2023-11-06T00:18:01.025Z,9.11
2023-11-06T00:20:27.952Z,9.10
2023-11-06T00:22:55.032Z,9.11
2023-11-06T00:25:22.014Z,9.11
2023-11-06T00:27:51.917Z,9.11
2023-11-06T00:30:19.002Z,9.15
2023-11-06T00:32:45.922Z,9.16
2023-11-06T00:35:17.256Z,9.19
2023-11-06T00:37:44.733Z,9.19
2023-11-06T00:40:11.876Z,9.23
2023-11-06T00:42:41.222Z,9.22
2023-11-06T00:45:08.772Z,9.19
2023-11-06T00:47:35.946Z,9.28
2023-11-06T00:50:02.990Z,9.29
2023-11-06T00:52:29.938Z,9.29
2023-11-06T00:54:56.873Z,9.30
2023-11-06T00:57:24.327Z,9.33
2023-11-06T00:59:54.060Z,9.29
2023-11-06T01:02:21.735Z,9.28
2023-11-06T01:04:50.322Z,9.31
2023-11-06T01:07:20.613Z,9.30
2023-11-06T01:09:52.747Z,9.28
2023-11-06T01:12:19.912Z,9.25
2023-11-06T01:14:47.343Z,9.24
2023-11-06T01:17:14.385Z,9.28
2023-11-06T01:19:44.242Z,9.14
2023-11-06T01:22:11.753Z,9.10
2023-11-06T01:24:38.556Z,9.07
2023-11-06T01:27:06.442Z,9.09
2023-11-06T01:29:36.793Z,9.09
2023-11-06T01:32:05.119Z,9.08
2023-11-06T01:34:35.072Z,9.07
2023-11-06T01:37:02.488Z,9.07
2023-11-06T01:39:29.488Z,9.05
2023-11-06T01:41:56.923Z,9.06
2023-11-06T01:44:24.720Z,9.10
2023-11-06T01:46:51.721Z,9.07
2023-11-06T01:49:19.330Z,9.10
2023-11-06T01:51:46.344Z,9.12
2023-11-06T01:54:13.601Z,9.11
2023-11-06T01:56:45.753Z,9.16
2023-11-06T01:59:13.877Z,9.16
2023-11-06T02:01:42.793Z,9.17
2023-11-06T02:04:16.353Z,9.17
2023-11-06T02:06:46.807Z,9.19
2023-11-06T02:09:13.903Z,9.18
2023-11-06T02:11:41.106Z,9.26
2023-11-06T02:14:10.643Z,9.25
2023-11-06T02:16:37.746Z,9.25
2023-11-06T02:19:04.650Z,9.25
2023-11-06T02:21:43.958Z,9.25
2023-11-06T02:24:13.994Z,9.29
2023-11-06T02:26:40.858Z,9.28
2023-11-06T02:29:08.769Z,9.29
2023-11-06T02:31:35.806Z,9.32
2023-11-06T02:34:02.760Z,9.35
2023-11-06T02:36:29.740Z,9.31
2023-11-06T02:38:56.928Z,9.30
2023-11-06T02:41:27.012Z,9.30
2023-11-06T02:47:57.665Z,9.35
2023-11-06T02:50:31.065Z,9.35
2023-11-06T02:52:58.277Z,9.30
2023-11-06T02:55:25.717Z,9.37
2023-11-06T02:57:52.896Z,9.42
2023-11-06T03:00:19.866Z,9.37
2023-11-06T03:02:46.847Z,9.42
2023-11-06T03:05:16.782Z,9.38
2023-11-06T03:07:48.516Z,9.35
2023-11-06T03:10:16.066Z,9.40
2023-11-06T03:12:43.172Z,9.40
2023-11-06T03:15:12.109Z,9.40
2023-11-06T03:17:40.026Z,9.44
2023-11-06T03:20:12.145Z,9.41
2023-11-06T03:22:39.515Z,9.37
2023-11-06T03:25:11.155Z,9.39
2023-11-06T03:27:38.088Z,9.36
2023-11-06T03:30:05.901Z,9.31
2023-11-06T03:32:33.736Z,9.27
2023-11-06T03:35:01.825Z,9.22
2023-11-06T03:37:29.976Z,9.24
2023-11-06T03:39:58.415Z,9.23
2023-11-06T03:42:28.353Z,9.18
2023-11-06T03:44:55.314Z,9.13
2023-11-06T03:47:26.405Z,9.10
2023-11-06T03:49:53.558Z,9.11
2023-11-06T03:52:21.037Z,9.08
2023-11-06T03:54:48.101Z,9.02
2023-11-06T03:57:15.035Z,9.05
2023-11-06T03:59:42.189Z,9.07
2023-11-06T04:02:11.714Z,9.05
2023-11-06T04:04:40.892Z,8.97
2023-11-06T04:07:07.795Z,9.00
2023-11-06T04:09:37.397Z,9.03
2023-11-06T04:12:04.597Z,9.02
2023-11-06T04:14:31.620Z,9.02
2023-11-06T04:16:58.611Z,9.05
2023-11-06T04:19:28.157Z,9.06
2023-11-06T04:21:57.822Z,9.10
2023-11-06T04:24:27.288Z,9.05
2023-11-06T04:26:56.787Z,9.02
2023-11-06T04:29:26.486Z,9.00
2023-11-06T04:31:53.518Z,9.02
2023-11-06T04:34:20.434Z,8.93
2023-11-06T04:36:47.302Z,8.87
2023-11-06T04:39:14.323Z,8.83
2023-11-06T04:41:41.282Z,8.81
2023-11-06T04:44:09.055Z,8.78
2023-11-06T04:46:36.188Z,8.80
2023-11-06T04:49:03.385Z,8.77
2023-11-06T04:51:30.928Z,8.72
2023-11-06T04:53:57.882Z,8.71
2023-11-06T04:56:24.912Z,8.67
2023-11-06T04:58:54.065Z,8.72
2023-11-06T05:01:23.493Z,8.81
2023-11-06T05:03:50.543Z,8.94
2023-11-06T05:06:17.580Z,8.93
2023-11-06T05:08:44.491Z,8.88
2023-11-06T05:11:27.024Z,9.00
2023-11-06T05:13:57.710Z,9.12
2023-11-06T05:16:24.995Z,9.00
2023-11-06T05:18:52.117Z,8.90
2023-11-06T05:21:27.323Z,8.87
2023-11-06T05:23:54.948Z,8.83
2023-11-06T05:26:25.342Z,8.80
2023-11-06T05:28:52.609Z,8.75
2023-11-06T05:31:19.530Z,8.68
2023-11-06T05:33:46.808Z,8.72
2023-11-06T05:36:16.913Z,8.69
2023-11-06T05:38:43.990Z,8.72
2023-11-06T05:41:13.582Z,8.67
2023-11-06T05:43:40.662Z,8.66
2023-11-06T05:46:07.675Z,8.73
2023-11-06T05:48:35.324Z,8.74
2023-11-06T05:51:02.720Z,8.72
2023-11-06T05:53:31.141Z,8.78
2023-11-06T05:55:58.185Z,8.75
2023-11-06T05:58:25.093Z,8.77
2023-11-06T06:00:53.281Z,8.84
2023-11-06T06:03:22.474Z,8.79
2023-11-06T06:05:49.799Z,8.85
2023-11-06T06:08:18.160Z,8.87
2023-11-06T06:10:45.177Z,8.93
2023-11-06T06:13:12.119Z,8.91
2023-11-06T06:15:39.138Z,8.95
2023-11-06T06:18:06.205Z,8.97
2023-11-06T06:20:34.420Z,9.00
2023-11-06T06:23:02.652Z,8.99
2023-11-06T06:25:32.599Z,9.05
2023-11-06T06:27:59.879Z,9.08
2023-11-06T06:30:38.253Z,9.11
2023-11-06T06:33:05.314Z,9.18
2023-11-06T06:35:32.407Z,9.15
2023-11-06T06:37:59.366Z,9.17
2023-11-06T06:40:27.686Z,9.14
2023-11-06T06:42:54.783Z,9.25
2023-11-06T06:45:23.495Z,9.26
2023-11-06T06:47:53.401Z,9.26
2023-11-06T06:50:23.273Z,9.25
2023-11-06T06:52:51.351Z,9.25
2023-11-06T06:55:23.013Z,9.31
2023-11-06T06:57:50.143Z,9.30
2023-11-06T07:00:18.516Z,9.29
2023-11-06T07:02:53.811Z,9.35
2023-11-06T07:05:31.962Z,9.33
2023-11-06T07:07:59.056Z,9.43
2023-11-06T07:10:26.418Z,9.44
2023-11-06T07:13:20.948Z,9.37
2023-11-06T07:15:50.389Z,9.42
2023-11-06T07:18:17.504Z,9.45
2023-11-06T07:20:44.640Z,9.45
2023-11-06T07:23:11.755Z,9.45
2023-11-06T07:25:38.678Z,9.48
2023-11-06T07:28:06.012Z,9.48
2023-11-06T07:30:36.091Z,9.54
2023-11-06T07:33:04.098Z,9.52
2023-11-06T07:35:32.550Z,9.59
2023-11-06T07:37:59.781Z,9.60
2023-11-06T07:40:26.724Z,9.60
2023-11-06T07:42:53.687Z,9.59
2023-11-06T07:45:29.934Z,9.60
2023-11-06T07:48:09.301Z,9.61
2023-11-06T07:50:48.131Z,9.65
2023-11-06T07:53:22.023Z,9.73
2023-11-06T07:55:49.394Z,9.73
2023-11-06T08:02:02.527Z,9.77
2023-11-06T08:05:13.646Z,9.77
2023-11-06T08:07:43.469Z,9.79
2023-11-06T08:10:11.609Z,9.75
2023-11-06T08:12:42.326Z,9.68
2023-11-06T08:15:13.558Z,9.67
2023-11-06T08:18:01.148Z,9.66
2023-11-06T08:21:13.259Z,9.79
2023-11-06T08:23:40.935Z,9.83
2023-11-06T08:26:08.632Z,9.94
2023-11-06T08:28:35.837Z,9.96
2023-11-06T08:31:12.031Z,9.99
2023-11-06T08:33:39.322Z,10.05
2023-11-06T08:36:11.345Z,10.06
2023-11-06T08:38:38.406Z,10.05
2023-11-06T08:41:09.041Z,10.10
2023-11-06T08:44:15.416Z,10.08
2023-11-06T08:46:49.174Z,10.10
2023-11-06T08:49:52.588Z,10.19
2023-11-06T08:52:25.574Z,10.14
2023-11-06T08:58:28.873Z,10.28
2023-11-06T09:00:56.010Z,10.26
2023-11-06T09:03:23.967Z,10.32
2023-11-06T09:05:51.321Z,10.34
2023-11-06T09:08:19.683Z,10.34
2023-11-06T09:10:47.378Z,10.34
2023-11-06T09:13:14.886Z,10.34
2023-11-06T09:15:42.444Z,10.28
2023-11-06T09:18:10.935Z,10.27
2023-11-06T09:20:37.897Z,10.34
2023-11-06T09:23:08.563Z,10.46
2023-11-06T09:25:35.612Z,10.52
2023-11-06T09:28:04.754Z,10.41
2023-11-06T09:30:35.351Z,10.41
2023-11-06T09:33:02.496Z,10.38
2023-11-06T09:35:32.532Z,10.38
2023-11-06T09:37:59.859Z,10.45
2023-11-06T09:40:30.777Z,10.44
2023-11-06T09:43:00.697Z,10.52
2023-11-06T09:45:27.931Z,10.62
2023-11-06T09:47:58.546Z,10.61
2023-11-06T09:50:25.488Z,10.66
2023-11-06T09:52:57.559Z,10.67
2023-11-06T09:55:24.931Z,10.77
2023-11-06T09:57:53.239Z,10.73
2023-11-06T10:00:22.398Z,10.84
2023-11-06T10:02:55.007Z,10.90
2023-11-06T10:05:22.369Z,10.91
2023-11-06T10:07:56.881Z,10.98
2023-11-06T10:10:28.893Z,11.01
2023-11-06T10:13:04.989Z,10.95
2023-11-06T10:15:33.736Z,10.94
2023-11-06T10:18:23.830Z,10.96
2023-11-06T10:20:55.771Z,10.90
2023-11-06T10:23:36.121Z,10.84
2023-11-06T10:26:17.222Z,10.85
2023-11-06T10:28:46.586Z,10.89
2023-11-06T10:31:13.648Z,10.96
2023-11-06T10:33:45.587Z,10.95
2023-11-06T10:36:19.237Z,11.01
2023-11-06T10:38:49.372Z,11.01
2023-11-06T10:41:27.369Z,11.02
2023-11-06T10:44:00.347Z,10.93
2023-11-06T10:46:32.460Z,10.92
2023-11-06T10:49:13.038Z,10.84
2023-11-06T10:51:42.819Z,10.76
2023-11-06T10:54:10.007Z,10.81
2023-11-06T10:56:37.018Z,10.72
2023-11-06T10:59:06.608Z,10.74
2023-11-06T11:01:36.373Z,10.79
2023-11-06T11:04:09.907Z,10.81
2023-11-06T11:06:37.078Z,10.80
2023-11-06T11:09:05.142Z,10.74
2023-11-06T11:11:32.356Z,10.75
2023-11-06T11:13:59.625Z,10.85
2023-11-06T11:16:40.058Z,10.98
2023-11-06T11:19:23.918Z,11.02
2023-11-06T11:22:10.614Z,11.14
2023-11-06T11:24:43.876Z,11.23
2023-11-06T11:27:12.555Z,11.27
2023-11-06T11:29:55.088Z,11.22
2023-11-06T11:32:31.467Z,11.14
2023-11-06T11:35:17.975Z,11.14
2023-11-06T11:38:01.304Z,11.06
2023-11-06T11:41:02.453Z,11.17
2023-11-06T11:43:32.203Z,11.27
2023-11-06T11:45:59.195Z,11.51
2023-11-06T11:48:52.059Z,11.52
2023-11-06T11:51:53.137Z,11.43
2023-11-06T11:54:26.846Z,11.42
2023-11-06T11:56:54.510Z,11.48
2023-11-06T11:59:22.142Z,11.52
2023-11-06T12:01:49.360Z,11.72
2023-11-06T12:04:24.293Z,11.77
2023-11-06T12:07:01.573Z,11.66
2023-11-06T12:09:29.623Z,11.61
2023-11-06T12:11:57.365Z,11.54
2023-11-06T12:14:31.062Z,11.41
2023-11-06T12:17:07.667Z,11.35
2023-11-06T12:19:41.506Z,11.28
2023-11-06T12:22:12.402Z,11.19
2023-11-06T12:24:49.082Z,11.11
2023-11-06T12:27:16.186Z,11.11
2023-11-06T12:29:43.158Z,11.08
2023-11-06T12:35:30.091Z,11.04
2023-11-06T12:38:00.057Z,11.08
2023-11-06T12:40:31.994Z,11.05
2023-11-06T12:43:04.482Z,11.07
2023-11-06T12:45:47.102Z,11.04
2023-11-06T12:48:36.146Z,11.02
2023-11-06T12:51:12.847Z,10.96
2023-11-06T12:53:49.420Z,10.90
2023-11-06T12:56:16.940Z,10.91
2023-11-06T12:58:44.234Z,10.96
2023-11-06T13:01:24.053Z,10.93
2023-11-06T13:03:55.090Z,10.92
2023-11-06T13:06:22.555Z,10.90
2023-11-06T13:08:51.003Z,10.86
2023-11-06T13:11:29.672Z,10.85
2023-11-06T13:14:02.823Z,10.88
2023-11-06T13:16:33.636Z,10.90
2023-11-06T13:19:01.017Z,10.89
2023-11-06T13:21:34.182Z,10.93
2023-11-06T13:24:02.061Z,11.01
2023-11-06T13:26:29.233Z,11.01
2023-11-06T13:28:56.338Z,11.18
2023-11-06T13:31:26.791Z,11.28
2023-11-06T13:33:53.831Z,11.34
2023-11-06T13:36:24.869Z,11.39
2023-11-06T13:38:52.486Z,11.29
2023-11-06T13:41:23.772Z,11.31
2023-11-06T13:43:55.661Z,11.19
2023-11-06T13:46:23.309Z,11.14
2023-11-06T13:48:52.076Z,11.14
2023-11-06T13:51:31.779Z,11.14
2023-11-06T13:54:15.883Z,11.21
2023-11-06T13:56:47.732Z,11.28
2023-11-06T13:59:17.469Z,11.25
2023-11-06T14:01:48.809Z,11.32
2023-11-06T14:04:18.634Z,11.30
2023-11-06T14:06:49.048Z,11.30
2023-11-06T14:09:36.207Z,11.23
2023-11-06T14:12:06.471Z,11.22
2023-11-06T14:14:33.804Z,11.17
2023-11-06T14:17:01.825Z,11.16
2023-11-06T14:19:30.379Z,11.11
2023-11-06T14:21:57.213Z,11.05
2023-11-06T14:24:29.192Z,10.90
2023-11-06T14:26:56.796Z,10.77
2023-11-06T14:29:23.690Z,10.70
2023-11-06T14:31:51.260Z,10.66
2023-11-06T14:34:18.221Z,10.65
2023-11-06T14:36:48.596Z,10.60
2023-11-06T14:39:15.716Z,10.61
2023-11-06T14:41:42.795Z,10.60
2023-11-06T14:44:12.950Z,10.54
2023-11-06T14:46:44.144Z,10.45
2023-11-06T14:49:18.961Z,10.51
2023-11-06T14:51:45.809Z,10.50
2023-11-06T14:54:14.383Z,10.44
2023-11-06T14:56:45.871Z,10.44
2023-11-06T14:59:12.772Z,10.43
2023-11-06T15:01:45.857Z,10.50
2023-11-06T15:04:12.731Z,10.50
2023-11-06T15:06:39.787Z,10.47
2023-11-06T15:09:06.688Z,10.43
2023-11-06T15:11:34.149Z,10.47
2023-11-06T15:14:02.093Z,10.40
2023-11-06T15:16:29.969Z,10.45
2023-11-06T15:18:59.506Z,10.46
2023-11-06T15:21:27.561Z,10.47
2023-11-06T15:23:54.815Z,10.47
2023-11-06T15:26:21.662Z,10.51
2023-11-06T15:28:48.524Z,10.50
2023-11-06T15:31:15.316Z,10.51
2023-11-06T15:33:42.213Z,10.60
2023-11-06T15:36:09.739Z,10.65
2023-11-06T15:38:40.612Z,10.60
2023-11-06T15:41:07.415Z,10.48
2023-11-06T15:43:36.867Z,10.49
2023-11-06T15:46:05.346Z,10.51
2023-11-06T15:48:36.405Z,10.56
2023-11-06T15:51:06.912Z,10.54
2023-11-06T15:53:35.448Z,10.56
2023-11-06T15:56:03.462Z,10.54
2023-11-06T15:58:30.514Z,10.49
2023-11-06T16:00:57.399Z,10.51
2023-11-06T16:03:24.264Z,10.50
2023-11-06T16:05:55.535Z,10.48
2023-11-06T16:08:22.997Z,10.56
2023-11-06T16:10:53.377Z,10.58
2023-11-06T16:13:20.241Z,10.52
2023-11-06T16:15:49.015Z,10.54
2023-11-06T16:18:19.659Z,10.52
2023-11-06T16:20:46.767Z,10.47
2023-11-06T16:23:31.012Z,10.45
2023-11-06T16:25:57.911Z,10.44
2023-11-06T16:28:24.833Z,10.49
2023-11-06T16:30:51.609Z,10.46
2023-11-06T16:33:18.484Z,10.51
2023-11-06T16:35:45.409Z,10.48
2023-11-06T16:38:21.032Z,10.45
2023-11-06T16:40:47.875Z,10.50
2023-11-06T16:43:14.846Z,10.54
2023-11-06T16:45:43.099Z,10.60
2023-11-06T16:48:10.297Z,10.56
2023-11-06T16:50:37.165Z,10.56
2023-11-06T16:53:04.031Z,10.53
2023-11-06T16:55:32.040Z,10.48
2023-11-06T16:57:58.974Z,10.44
2023-11-06T17:00:28.724Z,10.41
2023-11-06T17:02:56.275Z,10.45
2023-11-06T17:05:26.893Z,10.41
2023-11-06T17:07:53.790Z,10.47
2023-11-06T17:10:23.627Z,10.39
2023-11-06T17:12:50.428Z,10.38
2023-11-06T17:15:18.899Z,10.39
2023-11-06T17:17:46.082Z,10.37
2023-11-06T17:20:13.054Z,10.31
2023-11-06T17:22:40.130Z,10.25
2023-11-06T17:25:08.379Z,10.19
2023-11-06T17:27:35.493Z,10.15
2023-11-06T17:30:02.497Z,10.10
2023-11-06T17:32:34.219Z,10.09
2023-11-06T17:35:01.313Z,10.09
2023-11-06T17:37:28.927Z,10.03
2023-11-06T17:39:58.017Z,9.99
2023-11-06T17:42:25.871Z,9.95
2023-11-06T17:44:55.345Z,9.93
2023-11-06T17:47:22.683Z,9.91
2023-11-06T17:49:50.251Z,9.85
2023-11-06T17:52:17.218Z,9.89
2023-11-06T17:54:47.362Z,9.91
2023-11-06T17:57:14.758Z,9.89
2023-11-06T17:59:41.945Z,9.96
2023-11-06T18:02:11.267Z,9.97
2023-11-06T18:04:40.054Z,9.99
2023-11-06T18:07:07.143Z,9.97
2023-11-06T18:09:34.246Z,9.99
2023-11-06T18:12:01.350Z,10.01
2023-11-06T18:14:28.456Z,10.06
2023-11-06T18:16:55.939Z,10.09
2023-11-06T18:19:28.647Z,10.15
2023-11-06T18:21:58.464Z,10.17
2023-11-06T18:24:25.509Z,10.21
2023-11-06T18:26:54.272Z,10.20
2023-11-06T18:29:21.606Z,10.23
2023-11-06T18:31:49.076Z,10.17
2023-11-06T18:34:16.503Z,10.12
2023-11-06T18:36:44.701Z,10.11
2023-11-06T18:39:12.494Z,10.12
2023-11-06T18:41:41.049Z,10.08
2023-11-06T18:44:08.689Z,10.04
2023-11-06T18:46:35.695Z,9.95
2023-11-06T18:49:06.080Z,9.88
2023-11-06T18:51:33.827Z,9.87
2023-11-06T18:54:02.611Z,9.82
2023-11-06T18:56:30.667Z,9.82
2023-11-06T18:58:57.910Z,9.77
2023-11-06T19:01:25.828Z,9.79
2023-11-06T19:03:52.927Z,9.76
2023-11-06T19:06:25.993Z,9.76
2023-11-06T19:08:56.927Z,9.81
2023-11-06T19:11:24.596Z,9.80
2023-11-06T19:13:52.337Z,9.76
2023-11-06T19:16:19.390Z,9.75
2023-11-06T19:18:48.504Z,9.76
2023-11-06T19:21:20.856Z,9.72
2023-11-06T19:23:47.997Z,9.68
2023-11-06T19:26:15.106Z,9.71
2023-11-06T19:28:42.881Z,9.73
2023-11-06T19:31:13.085Z,9.72
2023-11-06T19:33:40.248Z,9.76
2023-11-06T19:36:08.075Z,9.73
2023-11-06T19:38:35.310Z,9.74
2023-11-06T19:41:02.625Z,9.71
2023-11-06T19:43:30.507Z,9.74
2023-11-06T19:46:02.954Z,9.78
2023-11-06T19:48:36.320Z,9.76
2023-11-06T19:51:06.140Z,9.77
2023-11-06T19:53:33.769Z,9.80
2023-11-06T19:56:01.669Z,9.77
2023-11-06T19:58:28.805Z,9.74
2023-11-06T20:00:56.023Z,9.73
2023-11-06T20:03:30.762Z,9.67
2023-11-06T20:05:58.331Z,9.65
2023-11-06T20:08:43.756Z,9.64
2023-11-06T20:11:12.635Z,9.59
2023-11-06T20:13:40.043Z,9.53
2023-11-06T20:16:08.184Z,9.46
2023-11-06T20:18:35.899Z,9.43
2023-11-06T20:21:02.996Z,9.41
2023-11-06T20:23:32.793Z,9.40
2023-11-06T20:25:59.931Z,9.31
2023-11-06T20:28:26.983Z,9.25
2023-11-06T20:30:54.087Z,9.28
2023-11-06T20:33:21.636Z,9.29
2023-11-06T20:35:49.966Z,9.25
2023-11-06T20:38:16.989Z,9.25
2023-11-06T20:40:44.034Z,9.18
2023-11-06T20:43:11.148Z,9.19
2023-11-06T20:45:38.194Z,9.13
2023-11-06T20:48:06.522Z,9.14
2023-11-06T20:50:34.194Z,9.10
2023-11-06T20:53:01.808Z,9.08
2023-11-06T20:55:31.300Z,9.01
2023-11-06T20:57:59.110Z,8.95
2023-11-06T21:00:26.560Z,9.02
2023-11-06T21:02:53.896Z,9.00
2023-11-06T21:05:24.612Z,8.98
2023-11-06T21:07:51.652Z,8.94
2023-11-06T21:10:18.713Z,8.93
2023-11-06T21:12:52.020Z,8.86
2023-11-06T21:15:19.103Z,8.87
2023-11-06T21:17:46.729Z,8.84
2023-11-06T21:20:14.524Z,8.89
2023-11-06T21:22:42.373Z,8.83
2023-11-06T21:25:15.830Z,8.81
2023-11-06T21:27:42.718Z,8.76
2023-11-06T21:30:12.549Z,8.78
2023-11-06T21:32:42.688Z,8.72
2023-11-06T21:35:09.798Z,8.72
2023-11-06T21:37:36.736Z,8.73
2023-11-06T21:40:03.893Z,8.64
2023-11-06T21:42:31.358Z,8.60
2023-11-06T21:45:01.621Z,8.63
2023-11-06T21:47:31.451Z,8.60
2023-11-06T21:50:02.351Z,8.62
2023-11-06T21:52:39.972Z,8.60
2023-11-06T21:55:07.831Z,8.55
2023-11-06T21:57:37.233Z,8.62
2023-11-06T22:00:06.341Z,8.57
2023-11-06T22:02:39.396Z,8.61
2023-11-06T22:05:10.108Z,8.60
2023-11-06T22:07:50.605Z,8.60
2023-11-06T22:10:24.845Z,8.51
2023-11-06T22:12:52.970Z,8.49
2023-11-06T22:15:20.186Z,8.49
2023-11-06T22:17:47.644Z,8.50
2023-11-06T22:20:14.948Z,8.46
2023-11-06T22:22:42.281Z,8.50
2023-11-06T22:25:10.912Z,8.42
2023-11-06T22:27:40.921Z,8.39
2023-11-06T22:30:11.093Z,8.36
2023-11-06T22:32:41.444Z,8.41
2023-11-06T22:35:08.910Z,8.46
2023-11-06T22:37:38.440Z,8.47
2023-11-06T22:40:06.907Z,8.45
2023-11-06T22:42:36.753Z,8.44
2023-11-06T22:45:03.850Z,8.54
2023-11-06T22:47:32.188Z,8.53
2023-11-06T22:49:59.284Z,8.65
2023-11-06T22:52:26.089Z,8.71
2023-11-06T22:54:52.926Z,8.75
2023-11-06T22:57:20.136Z,8.76
2023-11-06T22:59:47.046Z,8.79
2023-11-06T23:02:16.349Z,8.85
2023-11-06T23:04:43.395Z,8.86
2023-11-06T23:07:11.388Z,8.80
2023-11-06T23:09:38.395Z,8.73
2023-11-06T23:12:05.986Z,8.68
2023-11-06T23:14:32.874Z,8.72
2023-11-06T23:17:01.907Z,8.76
2023-11-06T23:19:31.592Z,8.79
2023-11-06T23:22:01.096Z,8.79
2023-11-06T23:24:27.981Z,8.81
2023-11-06T23:26:56.657Z,8.80
2023-11-06T23:29:23.524Z,8.83
2023-11-06T23:31:50.338Z,8.87
2023-11-06T23:34:17.344Z,8.87
2023-11-06T23:36:48.754Z,8.88
2023-11-06T23:39:19.289Z,8.89
2023-11-06T23:41:46.643Z,8.90
2023-11-06T23:44:13.809Z,8.94
2023-11-06T23:46:41.238Z,8.89
2023-11-06T23:49:11.142Z,8.91
2023-11-06T23:51:38.154Z,8.93
2023-11-06T23:54:08.964Z,8.98
2023-11-06T23:56:35.937Z,8.99
2023-11-06T23:59:03.700Z,9.04
